Chattanooga Metropolitan Airport Airport (CHA)

Airport Diagram
Current Weather/Forecast (VFR Conditions)
METAR KCHA 241253Z 02004KT 10SM FEW011 FEW200 BKN250 23/19 A2996 RMK AO2 SLP135 T02330194
TAF KCHA 241120Z 2412/2512 23005KT P6SM SCT200 BKN250 FM241800 22005KT P6SM -SHRA BKN060 TEMPO 2420/2424 4SM TSRA BR OVC025CB

All Charts
General
Chart Name Download
AIRPORT DIAGRAM
TAKEOFF MINIMUMS
ALTERNATE MINIMUMS

Departures
Chart Name Download
CHATTANOOGA NINE

Approaches
Chart Name Download
ILS OR LOC RWY 02
ILS OR LOC RWY 20
ILS RWY 20 (CAT II)
RNAV (GPS) RWY 02
RNAV (GPS) RWY 15
RNAV (GPS) RWY 20
RNAV (GPS) RWY 33


Inbound Traffic (Arrivals)

No inbound traffic.


Outbound Traffic (Departures)

No outbound traffic.